sensor_id;sensor_type;location;lat;lon;timestamp;temperature;humidity
17587;DHT22;8912;52.336;17.172;2022-07-24T00:01:38;15.40;99.90
17587;DHT22;8912;52.336;17.172;2022-07-24T00:04:07;15.40;99.90
17587;DHT22;8912;52.336;17.172;2022-07-24T00:06:36;15.40;99.90
17587;DHT22;8912;52.336;17.172;2022-07-24T00:09:05;15.40;99.90
17587;DHT22;8912;52.336;17.172;2022-07-24T00:11:35;15.40;99.90
17587;DHT22;8912;52.336;17.172;2022-07-24T00:14:04;15.40;99.90
17587;DHT22;8912;52.336;17.172;2022-07-24T00:16:38;15.30;99.90
17587;DHT22;8912;52.336;17.172;2022-07-24T00:19:07;15.30;99.90
17587;DHT22;8912;52.336;17.172;2022-07-24T00:21:36;15.30;99.90
17587;DHT22;8912;52.336;17.172;2022-07-24T00:24:05;15.30;99.90
17587;DHT22;8912;52.336;17.172;2022-07-24T00:26:35;15.30;99.90
17587;DHT22;8912;52.336;17.172;2022-07-24T00:29:04;15.20;99.90
17587;DHT22;8912;52.336;17.172;2022-07-24T00:31:34;15.20;99.90
17587;DHT22;8912;52.336;17.172;2022-07-24T00:34:04;15.20;99.90
17587;DHT22;8912;52.336;17.172;2022-07-24T00:36:33;15.20;99.90
17587;DHT22;8912;52.336;17.172;2022-07-24T00:39:02;15.20;99.90
17587;DHT22;8912;52.336;17.172;2022-07-24T00:41:32;15.20;99.90
17587;DHT22;8912;52.336;17.172;2022-07-24T00:44:04;15.20;99.90
17587;DHT22;8912;52.336;17.172;2022-07-24T00:46:33;15.10;99.90
17587;DHT22;8912;52.336;17.172;2022-07-24T00:49:06;15.10;99.90
17587;DHT22;8912;52.336;17.172;2022-07-24T00:51:47;15.10;99.90
17587;DHT22;8912;52.336;17.172;2022-07-24T00:54:17;15.00;99.90
17587;DHT22;8912;52.336;17.172;2022-07-24T00:56:48;15.00;99.90
17587;DHT22;8912;52.336;17.172;2022-07-24T00:59:18;14.90;99.90
17587;DHT22;8912;52.336;17.172;2022-07-24T01:01:48;14.90;99.90
17587;DHT22;8912;52.336;17.172;2022-07-24T01:04:19;14.90;99.90
17587;DHT22;8912;52.336;17.172;2022-07-24T01:06:48;14.80;99.90
17587;DHT22;8912;52.336;17.172;2022-07-24T01:09:17;14.80;99.90
17587;DHT22;8912;52.336;17.172;2022-07-24T01:11:46;14.80;99.90
17587;DHT22;8912;52.336;17.172;2022-07-24T01:14:16;14.70;99.90
17587;DHT22;8912;52.336;17.172;2022-07-24T01:16:45;14.70;99.90
17587;DHT22;8912;52.336;17.172;2022-07-24T01:19:14;14.80;99.90
17587;DHT22;8912;52.336;17.172;2022-07-24T01:21:49;14.80;99.90
17587;DHT22;8912;52.336;17.172;2022-07-24T01:24:19;14.80;99.90
17587;DHT22;8912;52.336;17.172;2022-07-24T01:26:48;14.80;99.90
17587;DHT22;8912;52.336;17.172;2022-07-24T01:29:17;14.70;99.90
17587;DHT22;8912;52.336;17.172;2022-07-24T01:31:46;14.80;99.90
17587;DHT22;8912;52.336;17.172;2022-07-24T01:34:15;14.70;99.90
17587;DHT22;8912;52.336;17.172;2022-07-24T01:36:44;14.70;99.90
17587;DHT22;8912;52.336;17.172;2022-07-24T01:39:14;14.70;99.90
17587;DHT22;8912;52.336;17.172;2022-07-24T01:41:43;14.70;99.90
17587;DHT22;8912;52.336;17.172;2022-07-24T01:44:12;14.60;99.90
17587;DHT22;8912;52.336;17.172;2022-07-24T01:46:41;14.60;99.90
17587;DHT22;8912;52.336;17.172;2022-07-24T01:49:09;14.50;99.90
17587;DHT22;8912;52.336;17.172;2022-07-24T01:51:38;14.50;99.90
17587;DHT22;8912;52.336;17.172;2022-07-24T01:54:07;14.50;99.90
17587;DHT22;8912;52.336;17.172;2022-07-24T01:56:37;14.40;99.90
17587;DHT22;8912;52.336;17.172;2022-07-24T01:59:06;14.30;99.90
17587;DHT22;8912;52.336;17.172;2022-07-24T02:01:39;14.30;99.90
17587;DHT22;8912;52.336;17.172;2022-07-24T02:04:08;14.30;99.90
17587;DHT22;8912;52.336;17.172;2022-07-24T02:06:37;14.20;99.90
17587;DHT22;8912;52.336;17.172;2022-07-24T02:09:06;14.20;99.90
17587;DHT22;8912;52.336;17.172;2022-07-24T02:11:37;14.20;99.90
17587;DHT22;8912;52.336;17.172;2022-07-24T02:14:06;14.20;99.90
17587;DHT22;8912;52.336;17.172;2022-07-24T02:16:35;14.10;99.90
17587;DHT22;8912;52.336;17.172;2022-07-24T02:19:03;14.10;99.90
17587;DHT22;8912;52.336;17.172;2022-07-24T02:21:33;14.00;99.90
17587;DHT22;8912;52.336;17.172;2022-07-24T02:24:02;13.80;99.90
17587;DHT22;8912;52.336;17.172;2022-07-24T02:26:31;13.80;99.90
17587;DHT22;8912;52.336;17.172;2022-07-24T02:29:01;13.90;99.90
17587;DHT22;8912;52.336;17.172;2022-07-24T02:31:31;13.90;99.90
17587;DHT22;8912;52.336;17.172;2022-07-24T02:34:00;13.90;99.90
17587;DHT22;8912;52.336;17.172;2022-07-24T02:36:29;13.90;99.90
17587;DHT22;8912;52.336;17.172;2022-07-24T02:38:58;13.90;99.90
17587;DHT22;8912;52.336;17.172;2022-07-24T02:41:27;13.90;99.90
17587;DHT22;8912;52.336;17.172;2022-07-24T02:43:56;13.90;99.90
17587;DHT22;8912;52.336;17.172;2022-07-24T02:46:26;13.90;99.90
17587;DHT22;8912;52.336;17.172;2022-07-24T02:48:55;13.80;99.90
17587;DHT22;8912;52.336;17.172;2022-07-24T02:51:24;13.80;99.90
17587;DHT22;8912;52.336;17.172;2022-07-24T02:53:53;13.80;99.90
17587;DHT22;8912;52.336;17.172;2022-07-24T02:56:22;13.80;99.90
17587;DHT22;8912;52.336;17.172;2022-07-24T02:58:51;13.80;99.90
17587;DHT22;8912;52.336;17.172;2022-07-24T03:01:20;13.80;99.90
17587;DHT22;8912;52.336;17.172;2022-07-24T03:03:50;13.70;99.90
17587;DHT22;8912;52.336;17.172;2022-07-24T03:06:19;13.60;99.90
17587;DHT22;8912;52.336;17.172;2022-07-24T03:08:48;13.50;99.90
17587;DHT22;8912;52.336;17.172;2022-07-24T03:11:17;13.40;99.90
17587;DHT22;8912;52.336;17.172;2022-07-24T03:13:46;13.40;99.90
17587;DHT22;8912;52.336;17.172;2022-07-24T03:16:15;13.30;99.90
17587;DHT22;8912;52.336;17.172;2022-07-24T03:18:44;13.40;99.90
17587;DHT22;8912;52.336;17.172;2022-07-24T03:21:17;13.40;99.90
17587;DHT22;8912;52.336;17.172;2022-07-24T03:24:07;13.50;99.90
17587;DHT22;8912;52.336;17.172;2022-07-24T03:26:36;13.60;99.90
17587;DHT22;8912;52.336;17.172;2022-07-24T03:29:04;13.70;99.90
17587;DHT22;8912;52.336;17.172;2022-07-24T03:31:34;13.90;99.90
17587;DHT22;8912;52.336;17.172;2022-07-24T03:34:03;14.10;99.90
17587;DHT22;8912;52.336;17.172;2022-07-24T03:36:35;14.60;99.90
17587;DHT22;8912;52.336;17.172;2022-07-24T03:39:04;15.00;99.90
17587;DHT22;8912;52.336;17.172;2022-07-24T03:41:34;15.10;99.90
17587;DHT22;8912;52.336;17.172;2022-07-24T03:44:03;15.60;99.90
17587;DHT22;8912;52.336;17.172;2022-07-24T03:46:32;16.20;99.90
17587;DHT22;8912;52.336;17.172;2022-07-24T03:49:01;17.00;99.90
17587;DHT22;8912;52.336;17.172;2022-07-24T03:51:31;17.70;99.90
17587;DHT22;8912;52.336;17.172;2022-07-24T03:54:05;17.80;99.90
17587;DHT22;8912;52.336;17.172;2022-07-24T03:56:34;17.70;99.90
17587;DHT22;8912;52.336;17.172;2022-07-24T03:59:03;18.30;99.90
17587;DHT22;8912;52.336;17.172;2022-07-24T04:01:32;18.70;99.90
17587;DHT22;8912;52.336;17.172;2022-07-24T04:04:01;18.50;99.90
17587;DHT22;8912;52.336;17.172;2022-07-24T04:06:33;19.00;99.90
17587;DHT22;8912;52.336;17.172;2022-07-24T04:09:03;19.00;99.90
17587;DHT22;8912;52.336;17.172;2022-07-24T04:11:34;19.30;99.90
17587;DHT22;8912;52.336;17.172;2022-07-24T04:14:04;19.20;99.90
17587;DHT22;8912;52.336;17.172;2022-07-24T04:16:33;19.20;99.90
17587;DHT22;8912;52.336;17.172;2022-07-24T04:19:02;19.20;99.90
17587;DHT22;8912;52.336;17.172;2022-07-24T04:21:33;19.40;99.90
17587;DHT22;8912;52.336;17.172;2022-07-24T04:24:03;19.80;99.90
17587;DHT22;8912;52.336;17.172;2022-07-24T04:26:32;20.50;99.90
17587;DHT22;8912;52.336;17.172;2022-07-24T04:29:02;20.50;99.90
17587;DHT22;8912;52.336;17.172;2022-07-24T04:31:32;20.80;99.90
17587;DHT22;8912;52.336;17.172;2022-07-24T04:34:00;20.80;99.90
17587;DHT22;8912;52.336;17.172;2022-07-24T04:36:29;20.50;99.90
17587;DHT22;8912;52.336;17.172;2022-07-24T04:38:58;20.60;99.90
17587;DHT22;8912;52.336;17.172;2022-07-24T04:41:34;20.60;99.90
17587;DHT22;8912;52.336;17.172;2022-07-24T04:44:05;20.40;99.90
17587;DHT22;8912;52.336;17.172;2022-07-24T04:46:34;20.50;99.90
17587;DHT22;8912;52.336;17.172;2022-07-24T04:49:03;20.40;99.90
17587;DHT22;8912;52.336;17.172;2022-07-24T04:51:32;20.40;99.90
17587;DHT22;8912;52.336;17.172;2022-07-24T04:54:01;20.90;99.90
17587;DHT22;8912;52.336;17.172;2022-07-24T04:56:30;21.30;99.90
17587;DHT22;8912;52.336;17.172;2022-07-24T04:59:00;21.70;98.30
17587;DHT22;8912;52.336;17.172;2022-07-24T05:01:32;21.90;97.90
17587;DHT22;8912;52.336;17.172;2022-07-24T05:04:01;21.60;98.80
17587;DHT22;8912;52.336;17.172;2022-07-24T05:06:30;21.60;98.10
17587;DHT22;8912;52.336;17.172;2022-07-24T05:08:58;22.50;95.20
17587;DHT22;8912;52.336;17.172;2022-07-24T05:11:28;22.60;93.80
17587;DHT22;8912;52.336;17.172;2022-07-24T05:13:57;21.90;95.00
17587;DHT22;8912;52.336;17.172;2022-07-24T05:16:25;21.90;95.40
17587;DHT22;8912;52.336;17.172;2022-07-24T05:18:56;21.50;97.30
17587;DHT22;8912;52.336;17.172;2022-07-24T05:21:24;21.60;95.00
17587;DHT22;8912;52.336;17.172;2022-07-24T05:23:54;21.70;97.20
17587;DHT22;8912;52.336;17.172;2022-07-24T05:26:23;21.80;94.00
17587;DHT22;8912;52.336;17.172;2022-07-24T05:28:52;21.30;95.20
17587;DHT22;8912;52.336;17.172;2022-07-24T05:31:21;21.20;96.60
17587;DHT22;8912;52.336;17.172;2022-07-24T05:33:50;21.30;98.00
17587;DHT22;8912;52.336;17.172;2022-07-24T05:36:21;21.20;95.20
17587;DHT22;8912;52.336;17.172;2022-07-24T05:38:49;20.70;97.80
17587;DHT22;8912;52.336;17.172;2022-07-24T05:41:18;20.90;96.90
17587;DHT22;8912;52.336;17.172;2022-07-24T05:43:47;20.50;97.60
17587;DHT22;8912;52.336;17.172;2022-07-24T05:46:16;20.50;99.10
17587;DHT22;8912;52.336;17.172;2022-07-24T05:48:45;19.70;99.90
17587;DHT22;8912;52.336;17.172;2022-07-24T05:51:14;19.40;99.90
17587;DHT22;8912;52.336;17.172;2022-07-24T05:53:45;19.00;99.90
17587;DHT22;8912;52.336;17.172;2022-07-24T05:56:13;18.70;99.90
17587;DHT22;8912;52.336;17.172;2022-07-24T05:58:42;18.50;99.90
17587;DHT22;8912;52.336;17.172;2022-07-24T06:01:17;18.50;99.90
17587;DHT22;8912;52.336;17.172;2022-07-24T06:03:46;18.70;99.90
17587;DHT22;8912;52.336;17.172;2022-07-24T06:06:15;18.50;99.90
17587;DHT22;8912;52.336;17.172;2022-07-24T06:08:46;18.70;99.90
17587;DHT22;8912;52.336;17.172;2022-07-24T06:11:14;18.50;99.90
17587;DHT22;8912;52.336;17.172;2022-07-24T06:13:45;18.40;99.90
17587;DHT22;8912;52.336;17.172;2022-07-24T06:16:14;18.40;99.90
17587;DHT22;8912;52.336;17.172;2022-07-24T06:18:43;18.30;99.90
17587;DHT22;8912;52.336;17.172;2022-07-24T06:21:12;18.40;99.90
17587;DHT22;8912;52.336;17.172;2022-07-24T06:23:41;18.50;99.90
17587;DHT22;8912;52.336;17.172;2022-07-24T06:26:12;18.50;99.90
17587;DHT22;8912;52.336;17.172;2022-07-24T06:28:40;18.70;99.90
17587;DHT22;8912;52.336;17.172;2022-07-24T06:31:09;18.70;99.90
17587;DHT22;8912;52.336;17.172;2022-07-24T06:33:44;18.70;99.90
17587;DHT22;8912;52.336;17.172;2022-07-24T06:36:13;18.80;99.90
17587;DHT22;8912;52.336;17.172;2022-07-24T06:38:42;18.90;99.90
17587;DHT22;8912;52.336;17.172;2022-07-24T06:41:12;19.00;99.90
17587;DHT22;8912;52.336;17.172;2022-07-24T06:43:41;18.90;99.90
17587;DHT22;8912;52.336;17.172;2022-07-24T06:46:10;19.00;99.90
17587;DHT22;8912;52.336;17.172;2022-07-24T06:48:39;19.00;99.90
17587;DHT22;8912;52.336;17.172;2022-07-24T06:51:08;19.10;99.90
17587;DHT22;8912;52.336;17.172;2022-07-24T06:53:36;19.30;99.90
17587;DHT22;8912;52.336;17.172;2022-07-24T06:56:08;19.20;99.90
17587;DHT22;8912;52.336;17.172;2022-07-24T06:58:38;19.30;99.30
17587;DHT22;8912;52.336;17.172;2022-07-24T07:01:07;19.30;98.70
17587;DHT22;8912;52.336;17.172;2022-07-24T07:03:36;19.30;98.10
17587;DHT22;8912;52.336;17.172;2022-07-24T07:06:05;19.10;98.30
17587;DHT22;8912;52.336;17.172;2022-07-24T07:08:34;19.10;99.00
17587;DHT22;8912;52.336;17.172;2022-07-24T07:11:03;19.40;98.90
17587;DHT22;8912;52.336;17.172;2022-07-24T07:13:32;19.60;98.60
17587;DHT22;8912;52.336;17.172;2022-07-24T07:16:03;19.60;97.40
17587;DHT22;8912;52.336;17.172;2022-07-24T07:18:32;19.60;98.10
17587;DHT22;8912;52.336;17.172;2022-07-24T07:21:06;19.70;97.60
17587;DHT22;8912;52.336;17.172;2022-07-24T07:23:35;19.80;97.60
17587;DHT22;8912;52.336;17.172;2022-07-24T07:26:04;20.00;96.00
17587;DHT22;8912;52.336;17.172;2022-07-24T07:28:33;20.10;96.20
17587;DHT22;8912;52.336;17.172;2022-07-24T07:31:04;19.90;96.30
17587;DHT22;8912;52.336;17.172;2022-07-24T07:33:33;19.90;96.20
17587;DHT22;8912;52.336;17.172;2022-07-24T07:36:02;19.90;96.40
17587;DHT22;8912;52.336;17.172;2022-07-24T07:38:31;19.80;96.80
17587;DHT22;8912;52.336;17.172;2022-07-24T07:41:02;19.80;95.80
17587;DHT22;8912;52.336;17.172;2022-07-24T07:43:32;19.90;96.60
17587;DHT22;8912;52.336;17.172;2022-07-24T07:46:03;19.80;95.60
17587;DHT22;8912;52.336;17.172;2022-07-24T07:48:32;19.70;94.50
17587;DHT22;8912;52.336;17.172;2022-07-24T07:51:01;19.70;94.70
17587;DHT22;8912;52.336;17.172;2022-07-24T07:53:30;19.70;95.20
17587;DHT22;8912;52.336;17.172;2022-07-24T07:55:59;19.50;94.90
17587;DHT22;8912;52.336;17.172;2022-07-24T07:58:28;19.40;95.20
17587;DHT22;8912;52.336;17.172;2022-07-24T08:00:57;19.60;95.20
17587;DHT22;8912;52.336;17.172;2022-07-24T08:03:27;19.80;94.50
17587;DHT22;8912;52.336;17.172;2022-07-24T08:05:56;19.60;94.80
17587;DHT22;8912;52.336;17.172;2022-07-24T08:08:25;20.20;95.20
17587;DHT22;8912;52.336;17.172;2022-07-24T08:10:54;20.40;91.40
17587;DHT22;8912;52.336;17.172;2022-07-24T08:13:23;20.30;91.70
17587;DHT22;8912;52.336;17.172;2022-07-24T08:15:52;20.30;92.00
17587;DHT22;8912;52.336;17.172;2022-07-24T08:18:21;20.50;90.80
17587;DHT22;8912;52.336;17.172;2022-07-24T08:20:51;20.10;91.60
17587;DHT22;8912;52.336;17.172;2022-07-24T08:23:20;19.90;92.40
17587;DHT22;8912;52.336;17.172;2022-07-24T08:25:49;19.80;92.60
17587;DHT22;8912;52.336;17.172;2022-07-24T08:28:18;20.40;92.00
17587;DHT22;8912;52.336;17.172;2022-07-24T08:30:49;20.50;90.40
17587;DHT22;8912;52.336;17.172;2022-07-24T08:33:18;20.20;90.80
17587;DHT22;8912;52.336;17.172;2022-07-24T08:35:47;20.20;90.50
17587;DHT22;8912;52.336;17.172;2022-07-24T08:38:17;19.90;90.80
17587;DHT22;8912;52.336;17.172;2022-07-24T08:40:46;20.30;91.10
17587;DHT22;8912;52.336;17.172;2022-07-24T08:43:16;20.20;90.20
17587;DHT22;8912;52.336;17.172;2022-07-24T08:45:44;20.40;90.90
17587;DHT22;8912;52.336;17.172;2022-07-24T08:48:13;20.20;90.70
17587;DHT22;8912;52.336;17.172;2022-07-24T08:50:42;20.30;90.70
17587;DHT22;8912;52.336;17.172;2022-07-24T08:53:11;20.10;90.00
17587;DHT22;8912;52.336;17.172;2022-07-24T08:55:42;20.40;91.10
17587;DHT22;8912;52.336;17.172;2022-07-24T08:58:12;20.20;90.50
17587;DHT22;8912;52.336;17.172;2022-07-24T09:00:41;20.70;90.00
17587;DHT22;8912;52.336;17.172;2022-07-24T09:03:10;20.80;89.40
17587;DHT22;8912;52.336;17.172;2022-07-24T09:05:56;20.90;89.00
17587;DHT22;8912;52.336;17.172;2022-07-24T09:08:25;20.90;89.60
17587;DHT22;8912;52.336;17.172;2022-07-24T09:10:59;21.00;86.90
17587;DHT22;8912;52.336;17.172;2022-07-24T09:13:32;20.90;89.10
17587;DHT22;8912;52.336;17.172;2022-07-24T09:16:18;21.30;89.10
17587;DHT22;8912;52.336;17.172;2022-07-24T09:18:51;21.30;85.90
17587;DHT22;8912;52.336;17.172;2022-07-24T09:21:21;21.30;86.90
17587;DHT22;8912;52.336;17.172;2022-07-24T09:23:50;21.40;87.60
17587;DHT22;8912;52.336;17.172;2022-07-24T09:26:21;21.60;87.60
17587;DHT22;8912;52.336;17.172;2022-07-24T09:28:51;22.00;84.10
17587;DHT22;8912;52.336;17.172;2022-07-24T09:31:21;22.10;84.10
17587;DHT22;8912;52.336;17.172;2022-07-24T09:33:50;22.30;84.90
17587;DHT22;8912;52.336;17.172;2022-07-24T09:36:20;22.00;83.50
17587;DHT22;8912;52.336;17.172;2022-07-24T09:38:50;21.90;84.50
17587;DHT22;8912;52.336;17.172;2022-07-24T09:41:23;21.70;84.90
17587;DHT22;8912;52.336;17.172;2022-07-24T09:43:59;21.80;84.50
17587;DHT22;8912;52.336;17.172;2022-07-24T09:46:46;21.70;83.30
17587;DHT22;8912;52.336;17.172;2022-07-24T09:49:19;21.90;84.50
17587;DHT22;8912;52.336;17.172;2022-07-24T09:52:10;21.90;83.90
17587;DHT22;8912;52.336;17.172;2022-07-24T09:54:41;21.40;85.50
17587;DHT22;8912;52.336;17.172;2022-07-24T09:57:28;21.50;86.10
17587;DHT22;8912;52.336;17.172;2022-07-24T09:59:59;21.10;86.90
17587;DHT22;8912;52.336;17.172;2022-07-24T10:02:31;21.20;88.30
17587;DHT22;8912;52.336;17.172;2022-07-24T10:05:03;21.30;86.00
17587;DHT22;8912;52.336;17.172;2022-07-24T10:07:34;21.60;85.40
17587;DHT22;8912;52.336;17.172;2022-07-24T10:10:04;22.10;87.00
17587;DHT22;8912;52.336;17.172;2022-07-24T10:12:40;22.20;83.10
17587;DHT22;8912;52.336;17.172;2022-07-24T10:15:09;22.20;86.00
17587;DHT22;8912;52.336;17.172;2022-07-24T10:18:05;22.20;83.40
17587;DHT22;8912;52.336;17.172;2022-07-24T10:20:39;22.10;82.50
17587;DHT22;8912;52.336;17.172;2022-07-24T10:23:23;22.00;83.10
17587;DHT22;8912;52.336;17.172;2022-07-24T10:26:04;21.50;83.40
17587;DHT22;8912;52.336;17.172;2022-07-24T10:28:40;21.50;86.30
17587;DHT22;8912;52.336;17.172;2022-07-24T10:31:10;21.90;86.20
17587;DHT22;8912;52.336;17.172;2022-07-24T10:33:41;21.60;83.90
17587;DHT22;8912;52.336;17.172;2022-07-24T10:36:17;21.50;84.80
17587;DHT22;8912;52.336;17.172;2022-07-24T10:38:56;21.90;85.20
17587;DHT22;8912;52.336;17.172;2022-07-24T10:41:27;22.20;85.80
17587;DHT22;8912;52.336;17.172;2022-07-24T10:44:17;22.40;83.40
17587;DHT22;8912;52.336;17.172;2022-07-24T10:47:00;22.80;82.20
17587;DHT22;8912;52.336;17.172;2022-07-24T10:49:42;22.40;82.30
17587;DHT22;8912;52.336;17.172;2022-07-24T10:52:22;22.50;83.70
17587;DHT22;8912;52.336;17.172;2022-07-24T10:55:23;22.50;81.40
17587;DHT22;8912;52.336;17.172;2022-07-24T10:58:04;22.20;82.40
17587;DHT22;8912;52.336;17.172;2022-07-24T11:00:44;22.00;83.80
17587;DHT22;8912;52.336;17.172;2022-07-24T11:03:21;22.00;85.70
17587;DHT22;8912;52.336;17.172;2022-07-24T11:06:05;20.50;82.60
17587;DHT22;8912;52.336;17.172;2022-07-24T11:08:38;22.00;83.40
17587;DHT22;8912;52.336;17.172;2022-07-24T11:11:13;22.30;85.50
17587;DHT22;8912;52.336;17.172;2022-07-24T11:13:50;22.40;82.50
17587;DHT22;8912;52.336;17.172;2022-07-24T11:16:26;22.60;83.80
17587;DHT22;8912;52.336;17.172;2022-07-24T11:19:24;22.60;81.10
17587;DHT22;8912;52.336;17.172;2022-07-24T11:22:10;22.70;83.00
17587;DHT22;8912;52.336;17.172;2022-07-24T11:25:11;22.90;80.20
17587;DHT22;8912;52.336;17.172;2022-07-24T11:27:53;23.00;81.40
17587;DHT22;8912;52.336;17.172;2022-07-24T11:30:26;23.10;78.00
17587;DHT22;8912;52.336;17.172;2022-07-24T11:32:57;23.20;79.40
17587;DHT22;8912;52.336;17.172;2022-07-24T11:35:28;23.30;80.70
17587;DHT22;8912;52.336;17.172;2022-07-24T11:37:59;22.80;79.90
17587;DHT22;8912;52.336;17.172;2022-07-24T11:40:29;22.90;81.20
17587;DHT22;8912;52.336;17.172;2022-07-24T11:42:59;23.30;78.40
17587;DHT22;8912;52.336;17.172;2022-07-24T11:45:35;23.40;79.30
17587;DHT22;8912;52.336;17.172;2022-07-24T11:48:06;23.50;78.40
17587;DHT22;8912;52.336;17.172;2022-07-24T11:50:35;23.50;78.60
17587;DHT22;8912;52.336;17.172;2022-07-24T11:53:06;23.40;79.00
17587;DHT22;8912;52.336;17.172;2022-07-24T11:55:36;23.50;78.40
17587;DHT22;8912;52.336;17.172;2022-07-24T11:58:05;23.80;77.80
17587;DHT22;8912;52.336;17.172;2022-07-24T12:00:54;23.80;77.30
17587;DHT22;8912;52.336;17.172;2022-07-24T12:03:25;23.90;75.90
17587;DHT22;8912;52.336;17.172;2022-07-24T12:05:55;24.00;75.20
17587;DHT22;8912;52.336;17.172;2022-07-24T12:08:24;23.90;78.00
17587;DHT22;8912;52.336;17.172;2022-07-24T12:10:55;24.30;77.00
17587;DHT22;8912;52.336;17.172;2022-07-24T12:13:25;24.50;75.60
17587;DHT22;8912;52.336;17.172;2022-07-24T12:15:54;24.30;75.20
17587;DHT22;8912;52.336;17.172;2022-07-24T12:18:25;24.40;77.00
17587;DHT22;8912;52.336;17.172;2022-07-24T12:21:02;24.60;74.70
17587;DHT22;8912;52.336;17.172;2022-07-24T12:23:32;24.70;72.90
17587;DHT22;8912;52.336;17.172;2022-07-24T12:26:01;24.70;72.70
17587;DHT22;8912;52.336;17.172;2022-07-24T12:28:30;24.70;74.70
17587;DHT22;8912;52.336;17.172;2022-07-24T12:31:06;24.50;72.50
17587;DHT22;8912;52.336;17.172;2022-07-24T12:33:38;24.00;73.80
17587;DHT22;8912;52.336;17.172;2022-07-24T12:36:10;24.50;74.30
17587;DHT22;8912;52.336;17.172;2022-07-24T12:38:41;24.60;71.30
17587;DHT22;8912;52.336;17.172;2022-07-24T12:41:12;24.30;71.90
17587;DHT22;8912;52.336;17.172;2022-07-24T12:43:49;24.50;72.50
17587;DHT22;8912;52.336;17.172;2022-07-24T12:46:19;24.70;70.80
17587;DHT22;8912;52.336;17.172;2022-07-24T12:49:03;24.50;71.00
17587;DHT22;8912;52.336;17.172;2022-07-24T12:51:49;24.50;72.50
17587;DHT22;8912;52.336;17.172;2022-07-24T12:54:20;24.80;70.60
17587;DHT22;8912;52.336;17.172;2022-07-24T12:56:50;24.80;69.40
17587;DHT22;8912;52.336;17.172;2022-07-24T12:59:24;24.50;70.60
17587;DHT22;8912;52.336;17.172;2022-07-24T13:01:55;24.60;70.80
17587;DHT22;8912;52.336;17.172;2022-07-24T13:04:26;24.60;71.20
17587;DHT22;8912;52.336;17.172;2022-07-24T13:06:57;24.70;71.30
17587;DHT22;8912;52.336;17.172;2022-07-24T13:09:27;24.80;71.60
17587;DHT22;8912;52.336;17.172;2022-07-24T13:12:05;25.00;70.10
17587;DHT22;8912;52.336;17.172;2022-07-24T13:14:35;25.40;69.30
17587;DHT22;8912;52.336;17.172;2022-07-24T13:17:05;25.40;68.00
17587;DHT22;8912;52.336;17.172;2022-07-24T13:19:39;25.50;68.20
17587;DHT22;8912;52.336;17.172;2022-07-24T13:22:08;25.60;67.90
17587;DHT22;8912;52.336;17.172;2022-07-24T13:24:38;25.50;66.40
17587;DHT22;8912;52.336;17.172;2022-07-24T13:27:08;25.10;67.50
17587;DHT22;8912;52.336;17.172;2022-07-24T13:29:37;24.80;68.50
17587;DHT22;8912;52.336;17.172;2022-07-24T13:32:07;25.10;68.60
17587;DHT22;8912;52.336;17.172;2022-07-24T13:34:37;25.00;66.70
17587;DHT22;8912;52.336;17.172;2022-07-24T13:37:07;25.00;66.80
17587;DHT22;8912;52.336;17.172;2022-07-24T13:39:37;25.20;68.60
17587;DHT22;8912;52.336;17.172;2022-07-24T13:42:08;25.10;67.70
17587;DHT22;8912;52.336;17.172;2022-07-24T13:44:37;25.40;67.30
17587;DHT22;8912;52.336;17.172;2022-07-24T13:47:06;25.50;67.10
17587;DHT22;8912;52.336;17.172;2022-07-24T13:49:35;25.70;66.80
17587;DHT22;8912;52.336;17.172;2022-07-24T13:52:06;25.80;66.60
17587;DHT22;8912;52.336;17.172;2022-07-24T13:54:36;25.70;64.50
17587;DHT22;8912;52.336;17.172;2022-07-24T13:57:05;25.60;65.10
17587;DHT22;8912;52.336;17.172;2022-07-24T13:59:34;25.60;65.90
17587;DHT22;8912;52.336;17.172;2022-07-24T14:02:03;25.50;65.30
17587;DHT22;8912;52.336;17.172;2022-07-24T14:04:32;25.20;65.00
17587;DHT22;8912;52.336;17.172;2022-07-24T14:07:02;25.30;67.30
17587;DHT22;8912;52.336;17.172;2022-07-24T14:09:33;25.30;64.90
17587;DHT22;8912;52.336;17.172;2022-07-24T14:12:01;25.60;66.10
17587;DHT22;8912;52.336;17.172;2022-07-24T14:14:37;25.60;65.10
17587;DHT22;8912;52.336;17.172;2022-07-24T14:17:07;25.60;64.20
17587;DHT22;8912;52.336;17.172;2022-07-24T14:19:35;25.70;63.50
17587;DHT22;8912;52.336;17.172;2022-07-24T14:22:04;25.80;64.30
17587;DHT22;8912;52.336;17.172;2022-07-24T14:24:35;25.90;62.90
17587;DHT22;8912;52.336;17.172;2022-07-24T14:27:07;25.90;63.00
17587;DHT22;8912;52.336;17.172;2022-07-24T14:29:35;25.80;65.00
17587;DHT22;8912;52.336;17.172;2022-07-24T14:32:04;26.10;63.10
17587;DHT22;8912;52.336;17.172;2022-07-24T14:34:33;26.30;64.20
17587;DHT22;8912;52.336;17.172;2022-07-24T14:37:02;26.40;62.90
17587;DHT22;8912;52.336;17.172;2022-07-24T14:39:31;26.60;61.60
17587;DHT22;8912;52.336;17.172;2022-07-24T14:42:02;26.40;61.50
17587;DHT22;8912;52.336;17.172;2022-07-24T14:44:31;26.40;62.30
17587;DHT22;8912;52.336;17.172;2022-07-24T14:47:00;26.20;61.30
17587;DHT22;8912;52.336;17.172;2022-07-24T14:49:32;26.20;61.40
17587;DHT22;8912;52.336;17.172;2022-07-24T14:52:01;26.20;60.20
17587;DHT22;8912;52.336;17.172;2022-07-24T14:54:29;26.30;61.50
17587;DHT22;8912;52.336;17.172;2022-07-24T14:56:59;26.50;61.00
17587;DHT22;8912;52.336;17.172;2022-07-24T14:59:30;26.40;60.50
17587;DHT22;8912;52.336;17.172;2022-07-24T15:01:58;26.40;59.80
17587;DHT22;8912;52.336;17.172;2022-07-24T15:04:27;26.30;59.00
17587;DHT22;8912;52.336;17.172;2022-07-24T15:06:56;26.20;59.10
17587;DHT22;8912;52.336;17.172;2022-07-24T15:09:25;26.30;59.00
17587;DHT22;8912;52.336;17.172;2022-07-24T15:11:54;26.50;59.30
17587;DHT22;8912;52.336;17.172;2022-07-24T15:14:23;26.40;58.30
17587;DHT22;8912;52.336;17.172;2022-07-24T15:16:53;26.00;58.20
17587;DHT22;8912;52.336;17.172;2022-07-24T15:19:22;26.20;59.00
17587;DHT22;8912;52.336;17.172;2022-07-24T15:21:51;26.00;58.70
17587;DHT22;8912;52.336;17.172;2022-07-24T15:24:20;26.00;59.10
17587;DHT22;8912;52.336;17.172;2022-07-24T15:26:52;26.20;58.20
17587;DHT22;8912;52.336;17.172;2022-07-24T15:29:21;26.10;57.60
17587;DHT22;8912;52.336;17.172;2022-07-24T15:31:50;26.20;56.30
17587;DHT22;8912;52.336;17.172;2022-07-24T15:34:20;26.30;57.00
17587;DHT22;8912;52.336;17.172;2022-07-24T15:36:49;26.40;57.40
17587;DHT22;8912;52.336;17.172;2022-07-24T15:39:18;26.30;56.30
17587;DHT22;8912;52.336;17.172;2022-07-24T15:41:47;26.50;57.50
17587;DHT22;8912;52.336;17.172;2022-07-24T15:44:19;26.50;56.90
17587;DHT22;8912;52.336;17.172;2022-07-24T15:46:49;26.60;56.00
17587;DHT22;8912;52.336;17.172;2022-07-24T15:49:20;26.30;55.80
17587;DHT22;8912;52.336;17.172;2022-07-24T15:51:48;26.20;56.30
17587;DHT22;8912;52.336;17.172;2022-07-24T15:54:17;26.20;56.00